Time;durP1;ratioP1;P1;durP2;ratioP2;P2;SDS_P1;SDS_P2;PMS_P1;PMS_P2;Temp;Humidity;BMP_temperature;BMP_pressure;BME280_temperature;BME280_humidity;BME280_pressure;Samples;Min_cycle;Max_cycle;Signal;HPM_P1;HPM_P2
2022/01/02 00:01:59;;;;;;;12.70;4.50;;;;;;;11.55;100.00;101836.22;5273837;28;20103;-73
2022/01/02 00:04:35;;;;;;;10.95;3.72;;;;;;;11.64;100.00;101839.84;5268308;28;20035;-73
2022/01/02 00:07:08;;;;;;;10.82;3.33;;;;;;;11.69;100.00;101848.31;5267393;28;20026;-73
2022/01/02 00:09:44;;;;;;;11.07;2.83;;;;;;;11.74;100.00;101850.56;5265479;28;20509;-74
2022/01/02 00:12:18;;;;;;;8.40;2.90;;;;;;;11.82;100.00;101846.16;5265088;28;20031;-73
2022/01/02 00:14:54;;;;;;;11.10;3.80;;;;;;;11.92;100.00;101851.47;5276075;28;20032;-73
2022/01/02 00:17:25;;;;;;;11.57;3.67;;;;;;;11.96;100.00;101834.06;5285995;28;20020;-73
2022/01/02 00:19:57;;;;;;;5.55;2.55;;;;;;;11.98;100.00;101834.75;5273075;27;20031;-73
2022/01/02 00:25:25;;;;;;;10.02;3.33;;;;;;;12.09;100.00;101818.38;5268300;28;20230;-73
2022/01/02 00:27:58;;;;;;;13.75;3.75;;;;;;;12.12;100.00;101825.31;5277485;28;20720;-73
2022/01/02 00:30:30;;;;;;;14.48;2.80;;;;;;;12.13;100.00;101838.59;5286316;28;20027;-73
2022/01/02 00:33:01;;;;;;;17.63;4.70;;;;;;;12.14;100.00;101834.06;5286114;28;20045;-74
2022/01/02 00:35:31;;;;;;;13.90;3.13;;;;;;;12.12;100.00;101817.25;5285724;28;20138;-73
2022/01/02 00:38:02;;;;;;;18.90;2.95;;;;;;;12.10;100.00;101825.47;5283193;27;20459;-74
2022/01/02 00:40:39;;;;;;;11.15;3.85;;;;;;;12.11;100.00;101824.47;5273913;28;20089;-74
2022/01/02 00:43:13;;;;;;;11.18;3.60;;;;;;;12.12;100.00;101830.69;5281275;28;20125;-74
2022/01/02 00:45:46;;;;;;;11.52;3.17;;;;;;;12.14;100.00;101813.38;5264065;28;20228;-74
2022/01/02 00:48:24;;;;;;;15.80;3.88;;;;;;;12.19;100.00;101804.84;5284603;28;20023;-73
2022/01/02 00:51:02;;;;;;;21.85;3.95;;;;;;;12.23;100.00;101792.78;5284838;27;20092;-73
2022/01/02 00:53:34;;;;;;;10.07;3.60;;;;;;;12.28;100.00;101781.56;5275175;28;20016;-74
2022/01/02 00:56:05;;;;;;;15.82;3.38;;;;;;;12.33;100.00;101777.41;5271209;27;20384;-73
2022/01/02 00:58:58;;;;;;;14.50;3.63;;;;;;;12.37;100.00;101791.41;5285754;28;20016;-73
2022/01/02 01:01:33;;;;;;;13.10;3.10;;;;;;;12.44;100.00;101781.72;5285438;28;20023;-74
2022/01/02 01:04:05;;;;;;;;;;;;;;;12.48;100.00;101782.25;5274029;28;20020;-73
2022/01/02 01:06:39;;;;;;;9.93;3.20;;;;;;;12.50;100.00;101778.41;5273967;28;19914;-74
2022/01/02 01:09:10;;;;;;;15.75;4.15;;;;;;;12.44;100.00;101787.94;5281404;28;20251;-75
2022/01/02 01:11:41;;;;;;;22.13;3.95;;;;;;;12.33;100.00;101777.41;5273436;28;20500;-75
2022/01/02 01:14:12;;;;;;;12.63;3.22;;;;;;;12.19;100.00;101769.88;5282471;28;20499;-75
2022/01/02 01:16:43;;;;;;;14.23;3.90;;;;;;;12.10;100.00;101758.22;5272323;28;20028;-74
2022/01/02 01:19:14;;;;;;;11.23;2.88;;;;;;;12.07;100.00;101763.06;5270460;28;20019;-75
2022/01/02 01:21:44;;;;;;;17.38;3.63;;;;;;;11.99;100.00;101777.25;5271269;28;20031;-75
2022/01/02 01:24:15;;;;;;;12.27;3.28;;;;;;;11.93;100.00;101777.88;5284516;28;20042;-75
2022/01/02 01:26:48;;;;;;;11.35;4.25;;;;;;;11.89;100.00;101776.50;5269060;28;20452;-75
2022/01/02 01:29:19;;;;;;;14.88;3.88;;;;;;;11.83;100.00;101769.03;5273489;28;20080;-74
2022/01/02 01:31:50;;;;;;;14.20;3.13;;;;;;;11.79;100.00;101762.22;5271034;28;20411;-74
2022/01/02 01:34:20;;;;;;;9.38;3.35;;;;;;;11.76;100.00;101767.94;5283925;27;20035;-74
2022/01/02 01:36:51;;;;;;;13.65;3.15;;;;;;;11.74;100.00;101756.47;5284521;28;20027;-75
2022/01/02 01:39:21;;;;;;;12.57;3.40;;;;;;;11.70;100.00;101750.56;5278773;28;20028;-74
2022/01/02 01:41:54;;;;;;;12.10;3.38;;;;;;;11.68;100.00;101748.00;5263892;28;20028;-74
2022/01/02 01:44:38;;;;;;;11.38;3.85;;;;;;;11.65;100.00;101734.91;5264778;28;20016;-74
2022/01/02 01:47:08;;;;;;;10.57;3.83;;;;;;;11.59;100.00;101730.09;5281173;28;20118;-75
2022/01/02 01:49:39;;;;;;;8.70;3.78;;;;;;;11.59;100.00;101732.78;5274266;28;20478;-75
2022/01/02 01:52:09;;;;;;;12.48;4.07;;;;;;;11.56;100.00;101743.00;5280316;28;20055;-75
2022/01/02 01:54:40;;;;;;;19.75;3.72;;;;;;;11.50;100.00;101732.88;5265107;28;20024;-75
2022/01/02 01:57:10;;;;;;;10.02;3.67;;;;;;;11.50;100.00;101743.63;5263715;28;20031;-75
2022/01/02 01:59:41;;;;;;;15.93;3.90;;;;;;;11.52;100.00;101729.03;5263607;28;20148;-75
2022/01/02 02:02:14;;;;;;;16.65;4.68;;;;;;;11.50;100.00;101719.44;5278450;28;20089;-75
2022/01/02 02:04:44;;;;;;;12.82;3.90;;;;;;;11.43;100.00;101721.88;5272355;27;20397;-75
2022/01/02 02:07:16;;;;;;;8.00;3.63;;;;;;;11.38;100.00;101718.78;5269561;28;20027;-75
2022/01/02 02:10:03;;;;;;;14.23;3.97;;;;;;;11.33;100.00;101716.53;5284547;28;20388;-75
2022/01/02 02:12:33;;;;;;;13.32;3.13;;;;;;;11.29;100.00;101709.78;5264785;28;20544;-75
2022/01/02 02:15:06;;;;;;;14.55;4.18;;;;;;;11.24;100.00;101708.53;5276902;28;20111;-75
2022/01/02 02:17:37;;;;;;;18.55;4.00;;;;;;;11.26;100.00;101711.94;5271792;28;20121;-74
2022/01/02 02:20:29;;;;;;;20.10;4.07;;;;;;;11.31;100.00;101701.59;5281651;28;20027;-75
2022/01/02 02:23:00;;;;;;;10.65;3.20;;;;;;;11.27;100.00;101697.50;5263735;28;20024;-74
2022/01/02 02:25:35;;;;;;;14.77;4.03;;;;;;;11.20;100.00;101693.75;5282875;28;20365;-75
2022/01/02 02:28:09;;;;;;;16.73;4.00;;;;;;;11.11;100.00;101695.47;5275048;28;20497;-75
2022/01/02 02:30:43;;;;;;;16.93;5.20;;;;;;;11.01;100.00;101687.47;5288532;27;20115;-75
2022/01/02 02:33:15;;;;;;;19.30;4.18;;;;;;;10.98;100.00;101690.44;5288835;28;20028;-76
2022/01/02 02:35:48;;;;;;;16.20;3.75;;;;;;;10.98;100.00;101695.81;5278793;28;20032;-76
2022/01/02 02:38:20;;;;;;;12.35;3.92;;;;;;;10.98;100.00;101695.81;5280015;28;20020;-76
2022/01/02 02:40:50;;;;;;;8.98;3.20;;;;;;;10.98;100.00;101685.06;5276992;28;20026;-76
2022/01/02 02:49:12;;;;;;;8.73;3.22;;;;;;;11.04;100.00;101705.09;5274212;28;20024;-75
2022/01/02 02:54:19;;;;;;;13.27;3.75;;;;;;;11.07;100.00;101683.34;5287852;28;20050;-75
2022/01/02 02:57:00;;;;;;;11.43;3.28;;;;;;;11.08;100.00;101679.66;5287476;28;20046;-76
2022/01/02 02:59:33;;;;;;;10.07;3.35;;;;;;;11.06;100.00;101674.44;5269410;28;20020;-76
2022/01/02 03:02:04;;;;;;;14.77;3.13;;;;;;;11.09;100.00;101681.34;5279564;28;20024;-76
2022/01/02 03:04:35;;;;;;;11.20;3.45;;;;;;;11.08;100.00;101690.38;5272116;28;20047;-75
2022/01/02 03:07:05;;;;;;;11.10;2.80;;;;;;;11.08;100.00;101683.19;5270815;28;20047;-76
2022/01/02 03:12:09;;;;;;;11.75;3.15;;;;;;;11.04;100.00;101684.47;5288119;28;20023;-76
2022/01/02 03:14:40;;;;;;;9.82;3.58;;;;;;;11.02;100.00;101670.34;5278434;28;20093;-76
2022/01/02 03:17:10;;;;;;;9.52;3.30;;;;;;;11.02;100.00;101667.66;5267122;28;20028;-76
2022/01/02 03:19:41;;;;;;;9.23;3.00;;;;;;;11.02;100.00;101664.97;5276800;28;20598;-76
2022/01/02 03:22:13;;;;;;;10.52;3.08;;;;;;;11.04;100.00;101654.94;5270297;28;20031;-77
2022/01/02 03:24:45;;;;;;;9.38;3.47;;;;;;;11.08;100.00;101642.91;5266266;28;20031;-76
2022/01/02 03:27:16;;;;;;;8.13;2.85;;;;;;;11.14;100.00;101641.44;5272043;28;20027;-76
2022/01/02 03:29:46;;;;;;;7.40;3.28;;;;;;;11.14;100.00;101647.69;5286585;28;20030;-76
2022/01/02 03:32:17;;;;;;;9.48;3.28;;;;;;;11.16;100.00;101639.47;5267185;28;20031;-76
2022/01/02 03:34:48;;;;;;;15.30;3.65;;;;;;;11.19;100.00;101636.47;5267262;28;20121;-76
2022/01/02 03:37:19;;;;;;;10.07;2.85;;;;;;;11.20;100.00;101630.13;5279378;28;20401;-76
2022/01/02 03:39:50;;;;;;;8.43;3.03;;;;;;;11.19;100.00;101630.25;5272975;28;20032;-75
2022/01/02 03:42:20;;;;;;;6.57;3.15;;;;;;;11.18;100.00;101618.66;5266675;28;20396;-75
2022/01/02 03:44:51;;;;;;;8.40;2.88;;;;;;;11.17;100.00;101613.47;5282191;28;20019;-75
2022/01/02 03:47:21;;;;;;;6.50;2.50;;;;;;;11.17;100.00;101616.16;5287618;28;20028;-75
2022/01/02 03:49:52;;;;;;;10.55;2.90;;;;;;;11.16;100.00;101612.63;5266834;28;20044;-75
2022/01/02 03:52:24;;;;;;;10.13;2.85;;;;;;;11.17;100.00;101606.25;5269855;28;20020;-75
2022/01/02 03:54:54;;;;;;;9.32;3.13;;;;;;;11.22;100.00;101612.00;5264925;28;20024;-75
2022/01/02 03:57:25;;;;;;;7.50;2.60;;;;;;;11.27;100.00;101608.88;5280448;28;20031;-75
2022/01/02 03:59:55;;;;;;;9.18;2.83;;;;;;;11.28;100.00;101616.75;5266673;28;20077;-75
2022/01/02 04:02:26;;;;;;;9.15;2.60;;;;;;;11.30;100.00;101608.56;5265609;28;20028;-76
2022/01/02 04:04:57;;;;;;;13.10;3.45;;;;;;;11.25;100.00;101614.41;5279704;28;20341;-76
2022/01/02 04:07:27;;;;;;;7.82;2.92;;;;;;;11.30;100.00;101603.19;5287139;28;20027;-76
2022/01/02 04:10:02;;;;;;;9.18;3.08;;;;;;;11.31;100.00;101594.13;5287631;28;20108;-75
2022/01/02 04:12:33;;;;;;;10.73;3.17;;;;;;;11.28;100.00;101589.91;5268386;28;20024;-75
2022/01/02 04:15:07;;;;;;;7.07;2.47;;;;;;;11.31;100.00;101575.34;5278330;28;20424;-75
2022/01/02 04:17:38;;;;;;;14.90;2.55;;;;;;;11.30;100.00;101573.66;5279922;28;20027;-75
2022/01/02 04:20:11;;;;;;;15.55;3.38;;;;;;;11.37;100.00;101562.13;5280543;28;20051;-76
2022/01/02 04:22:43;;;;;;;5.20;2.50;;;;;;;11.38;100.00;101552.22;5287029;28;20023;-76
2022/01/02 04:25:14;;;;;;;8.73;2.42;;;;;;;11.34;100.00;101548.16;5286516;28;20026;-76
2022/01/02 04:27:45;;;;;;;8.57;2.90;;;;;;;11.35;100.00;101542.66;5286740;28;20027;-75
2022/01/02 04:30:15;;;;;;;7.22;2.65;;;;;;;11.37;100.00;101537.09;5267123;28;20103;-74
2022/01/02 04:32:48;;;;;;;15.02;2.90;;;;;;;11.30;100.00;101538.72;5277123;28;20031;-75
2022/01/02 04:35:19;;;;;;;9.73;2.63;;;;;;;11.28;100.00;101540.72;5284722;28;20114;-75
2022/01/02 04:37:49;;;;;;;15.98;3.03;;;;;;;11.25;100.00;101541.03;5273393;28;20286;-75
2022/01/02 04:40:20;;;;;;;6.65;2.63;;;;;;;11.22;100.00;101538.66;5265111;28;20031;-75
2022/01/02 04:42:50;;;;;;;8.32;2.67;;;;;;;11.18;100.00;101546.16;5265350;28;20507;-75
2022/01/02 04:45:21;;;;;;;8.18;2.60;;;;;;;11.17;100.00;101527.53;5286029;28;20023;-75
2022/01/02 04:47:51;;;;;;;8.75;3.65;;;;;;;11.11;100.00;101519.09;5286151;27;20435;-75
2022/01/02 04:50:22;;;;;;;7.97;3.13;;;;;;;11.10;100.00;101503.13;5275212;28;20028;-75
2022/01/02 04:52:53;;;;;;;9.57;3.70;;;;;;;11.06;100.00;101493.69;5275332;28;20054;-75
2022/01/02 04:55:24;;;;;;;6.80;2.53;;;;;;;11.01;100.00;101480.72;5265218;28;20107;-75
2022/01/02 04:57:54;;;;;;;8.13;2.90;;;;;;;11.02;100.00;101473.50;5271725;28;20023;-75
2022/01/02 05:00:25;;;;;;;4.70;2.72;;;;;;;11.02;100.00;101468.97;5287330;28;20436;-75
2022/01/02 05:02:55;;;;;;;5.35;2.70;;;;;;;10.98;100.00;101475.66;5274706;28;20062;-76
2022/01/02 05:05:26;;;;;;;9.60;2.65;;;;;;;10.96;100.00;101476.81;5269224;28;20052;-75
2022/01/02 05:07:56;;;;;;;9.75;3.03;;;;;;;10.95;100.00;101464.41;5269417;28;20481;-75
2022/01/02 05:10:27;;;;;;;9.95;2.40;;;;;;;10.98;100.00;101472.97;5279520;28;20096;-76
2022/01/02 05:12:57;;;;;;;6.22;2.75;;;;;;;10.98;100.00;101478.34;5265442;28;20103;-75
2022/01/02 05:15:27;;;;;;;12.13;3.28;;;;;;;10.91;100.00;101471.06;5264452;28;20119;-75
2022/01/02 05:17:58;;;;;;;9.25;2.50;;;;;;;10.92;100.00;101475.44;5274481;28;20023;-76
2022/01/02 05:20:29;;;;;;;7.60;2.90;;;;;;;10.93;100.00;101472.59;5286301;28;20012;-75
2022/01/02 05:22:59;;;;;;;8.95;2.78;;;;;;;10.94;100.00;101471.56;5273918;28;20032;-75
2022/01/02 05:25:29;;;;;;;8.52;2.90;;;;;;;10.93;100.00;101458.31;5264289;28;20107;-75
2022/01/02 05:28:00;;;;;;;6.65;2.42;;;;;;;10.93;100.00;101450.25;5264284;28;20153;-75
2022/01/02 05:30:31;;;;;;;6.10;2.20;;;;;;;10.94;100.00;101443.88;5271434;28;20497;-75
2022/01/02 05:33:01;;;;;;;7.30;3.03;;;;;;;10.87;100.00;101454.41;5271072;28;20023;-75
2022/01/02 05:35:32;;;;;;;9.25;2.80;;;;;;;10.87;100.00;101446.34;5264099;28;20024;-75
2022/01/02 05:38:03;;;;;;;9.38;2.88;;;;;;;10.86;100.00;101421.34;5264504;28;20028;-75
2022/01/02 05:40:34;;;;;;;9.45;2.70;;;;;;;10.93;100.00;101380.47;5274480;28;20077;-75
2022/01/02 05:43:06;;;;;;;5.88;2.22;;;;;;;10.96;100.00;101374.81;5286689;27;20389;-75
2022/01/02 05:45:36;;;;;;;10.25;2.90;;;;;;;11.00;100.00;101368.13;5286595;28;20089;-76
2022/01/02 05:48:08;;;;;;;5.45;2.50;;;;;;;10.99;100.00;101372.63;5281087;28;20032;-76
2022/01/02 05:50:38;;;;;;;6.00;2.72;;;;;;;11.04;100.00;101362.25;5264067;28;20028;-75
2022/01/02 05:53:09;;;;;;;5.95;2.53;;;;;;;11.01;100.00;101340.28;5268993;28;20073;-75
2022/01/02 05:55:39;;;;;;;5.40;2.88;;;;;;;11.02;100.00;101329.38;5264954;28;20020;-75
2022/01/02 05:58:10;;;;;;;5.32;2.50;;;;;;;11.03;100.00;101317.63;5265389;28;20034;-75
2022/01/02 06:00:40;;;;;;;6.00;2.45;;;;;;;11.05;100.00;101312.97;5266092;28;20028;-75
2022/01/02 06:03:11;;;;;;;6.78;2.50;;;;;;;11.08;100.00;101303.72;5279552;28;20384;-75
2022/01/02 06:05:41;;;;;;;9.15;2.33;;;;;;;11.07;100.00;101297.50;5266524;28;20016;-74
2022/01/02 06:08:12;;;;;;;8.77;2.53;;;;;;;11.06;100.00;101287.78;5277396;28;20546;-75
2022/01/02 06:10:42;;;;;;;4.57;2.47;;;;;;;11.07;100.00;101281.41;5283446;28;20063;-75
2022/01/02 06:13:12;;;;;;;5.32;2.72;;;;;;;11.11;100.00;101271.19;5275689;28;20016;-76
2022/01/02 06:15:43;;;;;;;7.85;2.38;;;;;;;11.09;100.00;101268.69;5270255;28;20032;-75
2022/01/02 06:18:14;;;;;;;9.43;2.60;;;;;;;11.12;100.00;101251.41;5286745;28;20032;-76
2022/01/02 06:20:44;;;;;;;8.13;2.47;;;;;;;11.17;100.00;101258.97;5272977;28;20019;-75
2022/01/02 06:23:16;;;;;;;5.88;2.15;;;;;;;11.20;100.00;101253.28;5271703;28;20355;-76
2022/01/02 06:25:46;;;;;;;4.82;2.25;;;;;;;11.26;100.00;101261.53;5265121;28;20059;-76
2022/01/02 06:28:17;;;;;;;4.03;2.08;;;;;;;11.31;100.00;101255.69;5279584;28;20501;-75
2022/01/02 06:30:47;;;;;;;6.38;2.70;;;;;;;11.40;100.00;101243.97;5265028;28;20062;-75
2022/01/02 06:33:18;;;;;;;8.10;2.75;;;;;;;11.50;100.00;101233.09;5265134;28;20032;-75
2022/01/02 06:35:49;;;;;;;5.95;2.42;;;;;;;11.53;100.00;101222.84;5274108;28;20114;-75
2022/01/02 06:38:21;;;;;;;4.97;2.10;;;;;;;11.55;100.00;101214.66;5284247;28;20030;-75
2022/01/02 06:40:52;;;;;;;4.45;1.95;;;;;;;11.56;100.00;101219.84;5277517;28;20557;-75
2022/01/02 06:43:23;;;;;;;4.10;2.35;;;;;;;11.55;100.00;101220.84;5284944;28;20023;-75
2022/01/02 06:45:53;;;;;;;5.15;2.20;;;;;;;11.57;100.00;101210.78;5271785;28;20048;-75
2022/01/02 06:48:24;;;;;;;9.77;2.10;;;;;;;11.55;100.00;101210.13;5276987;28;20481;-76
2022/01/02 06:50:54;;;;;;;5.35;2.45;;;;;;;11.53;100.00;101211.25;5264650;28;20024;-76
2022/01/02 06:53:24;;;;;;;6.53;2.00;;;;;;;11.49;100.00;101201.84;5273621;28;20027;-76
2022/01/02 06:55:55;;;;;;;6.70;2.33;;;;;;;11.48;100.00;101208.22;5264516;28;20036;-76
2022/01/02 06:58:25;;;;;;;6.70;3.70;;;;;;;11.49;100.00;101229.53;5264474;28;20024;-76
2022/01/02 07:00:56;;;;;;;11.05;3.33;;;;;;;11.47;100.00;101238.78;5264697;28;20512;-76
2022/01/02 07:03:26;;;;;;;4.05;2.13;;;;;;;11.38;100.00;101206.50;5268169;28;20047;-76
2022/01/02 07:05:57;;;;;;;8.02;2.88;;;;;;;11.39;100.00;101212.72;5282644;28;20102;-77
2022/01/02 07:08:28;;;;;;;7.03;2.13;;;;;;;11.52;100.00;101226.56;5271397;28;20035;-77
2022/01/02 07:11:00;;;;;;;4.65;3.47;;;;;;;11.55;100.00;101236.16;5282060;28;20038;-76
2022/01/02 07:13:31;;;;;;;3.05;1.83;;;;;;;11.60;100.00;101229.28;5287402;28;20511;-77
2022/01/02 07:16:01;;;;;;;9.23;2.38;;;;;;;11.59;100.00;101232.94;5266635;28;20020;-77
2022/01/02 07:18:32;;;;;;;4.57;2.10;;;;;;;11.65;100.00;101242.22;5266592;28;20030;-77
2022/01/02 07:21:02;;;;;;;6.03;2.15;;;;;;;11.72;100.00;101243.22;5267439;28;20028;-76
2022/01/02 07:23:33;;;;;;;7.80;1.95;;;;;;;11.69;100.00;101243.56;5267601;28;20047;-76
2022/01/02 07:26:03;;;;;;;4.97;1.90;;;;;;;11.67;100.00;101235.66;5267488;28;20105;-76
2022/01/02 07:28:34;;;;;;;7.00;2.33;;;;;;;11.68;100.00;101264.22;5286135;28;20396;-76
2022/01/02 07:31:04;;;;;;;7.07;2.90;;;;;;;11.69;100.00;101251.63;5290583;28;20023;-76
2022/01/02 07:33:35;;;;;;;6.30;2.20;;;;;;;11.71;100.00;101263.06;5288327;28;20020;-77
2022/01/02 07:36:05;;;;;;;7.22;2.50;;;;;;;11.63;100.00;101253.13;5291057;28;20032;-76
2022/01/02 07:38:36;;;;;;;4.85;2.30;;;;;;;11.61;100.00;101244.38;5270409;28;20024;-76
2022/01/02 07:41:06;;;;;;;6.72;2.22;;;;;;;11.71;100.00;101246.94;5283287;28;20380;-76
2022/01/02 07:43:36;;;;;;;6.25;2.22;;;;;;;11.84;100.00;101257.22;5290416;28;20032;-76
2022/01/02 07:46:07;;;;;;;8.93;2.40;;;;;;;11.93;100.00;101256.25;5290248;28;20023;-77
2022/01/02 07:48:37;;;;;;;3.90;1.77;;;;;;;11.95;100.00;101274.91;5288905;28;20051;-76
2022/01/02 07:51:08;;;;;;;4.50;1.83;;;;;;;12.05;100.00;101275.59;5286647;28;20530;-77
2022/01/02 07:53:39;;;;;;;4.43;1.80;;;;;;;12.06;100.00;101279.97;5278127;28;20457;-76
2022/01/02 07:56:10;;;;;;;10.48;2.33;;;;;;;12.12;100.00;101288.22;5287066;28;20027;-77
2022/01/02 07:58:40;;;;;;;5.90;2.35;;;;;;;12.13;100.00;101284.53;5278069;28;20473;-76
2022/01/02 08:01:11;;;;;;;5.75;2.20;;;;;;;12.19;100.00;101289.22;5286806;28;20026;-76
2022/01/02 08:03:42;;;;;;;5.53;2.20;;;;;;;12.39;100.00;101284.38;5284306;28;20031;-75
2022/01/02 08:06:13;;;;;;;7.63;2.13;;;;;;;12.55;100.00;101288.06;5273140;28;20573;-76
2022/01/02 08:08:45;;;;;;;6.78;2.60;;;;;;;12.64;100.00;101290.59;5272858;28;20039;-75
2022/01/02 08:11:16;;;;;;;12.38;5.22;;;;;;;12.76;100.00;101285.72;5266996;28;20023;-76
2022/01/02 08:13:47;;;;;;;7.90;3.05;;;;;;;12.76;100.00;101287.59;5279220;28;20096;-75
2022/01/02 08:16:18;;;;;;;7.88;2.80;;;;;;;12.76;100.00;101290.28;5265066;28;20489;-75
2022/01/02 08:18:48;;;;;;;9.68;2.63;;;;;;;12.72;100.00;101305.06;5278822;28;20386;-75
2022/01/02 08:21:19;;;;;;;10.02;2.90;;;;;;;12.66;100.00;101307.44;5276870;28;20141;-75
2022/01/02 08:23:49;;;;;;;8.98;2.80;;;;;;;12.64;100.00;101300.53;5271744;28;20377;-76
2022/01/02 08:26:20;;;;;;;10.65;3.10;;;;;;;12.62;100.00;101299.88;5272455;28;20035;-75
2022/01/02 08:28:51;;;;;;;6.68;2.90;;;;;;;12.56;100.00;101293.31;5271424;27;20023;-76
2022/01/02 08:31:22;;;;;;;8.35;2.80;;;;;;;12.50;100.00;101279.66;5281216;28;20016;-75
2022/01/02 08:33:52;;;;;;;10.82;2.53;;;;;;;12.47;100.00;101280.84;5283746;28;20034;-76
2022/01/02 08:36:23;;;;;;;8.43;3.10;;;;;;;12.38;100.00;101269.25;5284017;27;20020;-75
2022/01/02 08:38:53;;;;;;;5.88;3.20;;;;;;;12.37;100.00;101289.09;5283105;28;20354;-75
2022/01/02 08:41:24;;;;;;;8.77;3.05;;;;;;;12.34;100.00;101293.97;5266074;28;20027;-75
2022/01/02 08:43:54;;;;;;;8.65;3.03;;;;;;;12.32;100.00;101296.81;5284741;28;20020;-76
2022/01/02 08:46:25;;;;;;;8.10;3.13;;;;;;;12.34;100.00;101307.41;5284172;28;20372;-75
2022/01/02 08:48:55;;;;;;;7.45;3.45;;;;;;;12.28;100.00;101303.53;5272331;28;20152;-75
2022/01/02 08:51:27;;;;;;;11.75;3.70;;;;;;;12.26;100.00;101296.66;5280386;28;20020;-75
2022/01/02 08:53:58;;;;;;;8.02;3.22;;;;;;;12.25;100.00;101295.81;5276396;28;20022;-75
2022/01/02 08:56:28;;;;;;;10.25;3.95;;;;;;;12.24;100.00;101306.72;5283684;28;20031;-76
2022/01/02 08:58:59;;;;;;;7.93;3.95;;;;;;;12.21;100.00;101299.84;5282129;28;20313;-75
2022/01/02 09:01:29;;;;;;;7.35;3.58;;;;;;;12.21;100.00;101301.69;5284148;27;20032;-75
2022/01/02 09:04:00;;;;;;;8.38;3.30;;;;;;;12.18;100.00;101286.72;5286799;27;20046;-76
2022/01/02 09:06:31;;;;;;;9.80;4.18;;;;;;;12.39;100.00;101302.38;5288191;27;20072;-76
2022/01/02 09:09:02;;;;;;;8.20;3.58;;;;;;;12.57;100.00;101294.97;5293523;27;20016;-75
2022/01/02 09:11:32;;;;;;;9.15;3.47;;;;;;;13.06;100.00;101303.03;5294961;27;20035;-75
2022/01/02 09:14:03;;;;;;;9.88;3.97;;;;;;;13.55;100.00;101313.66;5289558;27;20373;-76
2022/01/02 09:16:34;;;;;;;14.20;4.20;;;;;;;13.87;100.00;101318.09;5293964;27;20107;-75
2022/01/02 09:19:04;;;;;;;7.82;3.22;;;;;;;14.38;100.00;101323.84;5287655;27;20023;-76
2022/01/02 09:21:35;;;;;;;7.90;3.72;;;;;;;14.75;100.00;101314.13;5296768;27;20077;-76
2022/01/02 09:24:06;;;;;;;7.75;3.60;;;;;;;14.98;100.00;101320.34;5295354;27;20015;-76
2022/01/02 09:26:36;;;;;;;9.40;3.83;;;;;;;14.98;100.00;101327.63;5294758;27;20454;-76
2022/01/02 09:29:07;;;;;;;9.18;3.65;;;;;;;14.97;100.00;101334.88;5293660;27;20022;-76
2022/01/02 09:31:37;;;;;;;12.13;4.38;;;;;;;14.66;100.00;101324.19;5288263;27;21138;-76
2022/01/02 09:34:08;;;;;;;8.90;4.30;;;;;;;14.16;100.00;101325.53;5282289;27;20031;-76
2022/01/02 09:36:39;;;;;;;10.27;4.10;;;;;;;13.62;100.00;101330.00;5289245;27;20024;-76
2022/01/02 09:39:10;;;;;;;8.10;4.13;;;;;;;13.18;100.00;101339.34;5283088;27;20027;-76
2022/01/02 09:41:40;;;;;;;5.85;3.95;;;;;;;13.28;100.00;101327.56;5290583;27;20023;-75
2022/01/02 09:44:11;;;;;;;9.23;4.07;;;;;;;13.64;100.00;101326.09;5294600;27;20613;-75
2022/01/02 09:46:42;;;;;;;21.13;12.30;;;;;;;13.54;100.00;101325.47;5286814;27;20099;-75
2022/01/02 09:49:13;;;;;;;10.60;4.07;;;;;;;13.31;100.00;101325.38;5284702;27;20028;-75
2022/01/02 09:51:43;;;;;;;12.05;3.88;;;;;;;13.13;100.00;101322.03;5288329;27;20034;-76
2022/01/02 09:54:14;;;;;;;6.43;3.50;;;;;;;13.06;100.00;101331.81;5291002;27;20132;-75
2022/01/02 09:56:45;;;;;;;9.80;3.40;;;;;;;12.83;100.00;101321.72;5281290;28;20720;-75
2022/01/02 09:59:16;;;;;;;8.98;3.88;;;;;;;12.77;100.00;101306.25;5283172;28;20515;-75
2022/01/02 10:01:47;;;;;;;11.68;3.45;;;;;;;12.77;100.00;101324.25;5293520;27;20106;-75
2022/01/02 10:04:37;;;;;;;11.05;4.20;;;;;;;12.71;100.00;101312.31;5285738;27;20134;-73
2022/01/02 10:07:30;;;;;;;11.55;4.15;;;;;;;12.84;100.00;101325.25;5286141;27;20398;-73
2022/01/02 10:10:19;;;;;;;9.13;4.03;;;;;;;12.81;100.00;101331.00;5290976;28;20431;-73
2022/01/02 10:12:59;;;;;;;8.55;4.00;;;;;;;12.65;100.00;101338.06;5288694;28;20076;-73
2022/01/02 10:15:32;;;;;;;14.52;4.18;;;;;;;12.74;100.00;101327.28;5292396;27;20713;-73
2022/01/02 10:18:05;;;;;;;10.95;3.88;;;;;;;12.73;100.00;101330.97;5290375;27;20020;-73
2022/01/02 10:20:39;;;;;;;12.05;4.00;;;;;;;12.72;100.00;101322.06;5296055;28;20429;-74
2022/01/02 10:23:23;;;;;;;10.77;3.75;;;;;;;12.66;100.00;101337.06;5292012;28;20074;-73
2022/01/02 10:25:56;;;;;;;26.20;14.50;;;;;;;12.67;100.00;101332.50;5289272;28;20103;-73
2022/01/02 10:28:38;;;;;;;11.43;4.28;;;;;;;12.63;100.00;101317.69;5292123;28;20022;-74
2022/01/02 10:31:12;;;;;;;18.83;7.05;;;;;;;12.70;100.00;101324.94;5290757;27;20035;-73
2022/01/02 10:33:55;;;;;;;10.13;3.30;;;;;;;12.77;100.00;101335.88;5292397;28;20011;-73
2022/01/02 10:36:28;;;;;;;17.88;4.22;;;;;;;12.95;100.00;101335.66;5293466;27;20035;-73
2022/01/02 10:39:12;;;;;;;10.55;3.75;;;;;;;13.04;100.00;101326.56;5288455;28;20023;-73
2022/01/02 10:41:45;;;;;;;8.95;3.70;;;;;;;13.21;100.00;101317.50;5292079;28;20122;-73
2022/01/02 10:44:35;;;;;;;9.82;3.58;;;;;;;13.30;100.00;101323.69;5291769;27;20379;-73
2022/01/02 10:47:20;;;;;;;9.15;3.38;;;;;;;13.23;100.00;101330.78;5291936;27;20019;-73
2022/01/02 10:50:11;;;;;;;11.77;3.93;;;;;;;13.28;100.00;101308.72;5296892;27;20399;-73
2022/01/02 10:52:45;;;;;;;9.07;3.55;;;;;;;13.23;100.00;101319.16;5295556;27;20472;-73
2022/01/02 10:55:34;;;;;;;10.88;3.70;;;;;;;13.31;100.00;101322.69;5288878;27;20023;-73
2022/01/02 10:58:07;;;;;;;10.02;4.28;;;;;;;13.31;100.00;101316.47;5297485;27;20027;-73
2022/01/02 11:00:38;;;;;;;4.57;3.10;;;;;;;13.40;100.00;101324.38;5297758;27;20015;-73
2022/01/02 11:03:09;;;;;;;7.13;3.50;;;;;;;13.47;100.00;101322.63;5293443;27;20037;-73
2022/01/02 11:05:39;;;;;;;32.75;16.33;;;;;;;13.51;100.00;101333.09;5292696;27;20023;-73
2022/01/02 11:08:12;;;;;;;13.52;4.05;;;;;;;13.67;100.00;101322.22;5297443;27;20307;-73
2022/01/02 11:10:44;;;;;;;14.23;7.80;;;;;;;13.86;100.00;101331.75;5293960;27;20102;-73
2022/01/02 11:13:16;;;;;;;12.25;7.75;;;;;;;13.77;100.00;101322.03;5301286;27;20051;-73
2022/01/02 11:15:47;;;;;;;17.55;4.47;;;;;;;13.64;100.00;101336.06;5295343;27;20125;-73
2022/01/02 11:18:18;;;;;;;8.65;3.95;;;;;;;13.54;100.00;101325.47;5299178;27;20127;-73
2022/01/02 11:20:49;;;;;;;9.05;4.68;;;;;;;13.45;100.00;101340.84;5294326;27;20027;-73
2022/01/02 11:23:24;;;;;;;9.70;3.72;;;;;;;13.36;100.00;101317.63;5295380;27;20476;-73
2022/01/02 11:26:03;;;;;;;12.73;4.50;;;;;;;13.31;100.00;101333.47;5291227;27;20023;-73
2022/01/02 11:28:47;;;;;;;10.82;3.80;;;;;;;13.28;100.00;101323.03;5293807;27;20034;-73
2022/01/02 11:31:35;;;;;;;12.07;5.88;;;;;;;13.28;100.00;101322.19;5294144;27;20453;-73
2022/01/02 11:34:26;;;;;;;13.38;6.03;;;;;;;13.27;100.00;101325.91;5293937;27;20117;-73
2022/01/02 11:37:34;;;;;;;7.55;4.20;;;;;;;13.24;100.00;101313.59;5296364;27;20026;-73
2022/01/02 11:40:06;;;;;;;10.57;4.85;;;;;;;13.25;100.00;101309.06;5289008;27;20024;-73
2022/01/02 11:42:38;;;;;;;9.35;3.63;;;;;;;13.34;100.00;101316.09;5294154;27;20015;-73
2022/01/02 11:45:31;;;;;;;13.73;4.45;;;;;;;13.36;100.00;101317.63;5289150;27;20657;-73
2022/01/02 11:48:39;;;;;;;10.98;5.82;;;;;;;13.36;100.00;101312.25;5295089;27;20023;-73
2022/01/02 11:51:10;;;;;;;11.95;3.60;;;;;;;13.27;100.00;101307.88;5290227;27;20027;-73
2022/01/02 11:53:52;;;;;;;12.00;3.67;;;;;;;13.27;100.00;101298.97;5296351;27;20015;-73